SKSP

Gustavo Rojas Pinilla International Airport

San Andrés, Colombia
TAF SKSP 232300Z 2400/2424 06012KT 9999 FEW017 SCT120 TEMPO 2402/2406 7000 SHRA SCT017CB OVC200 PROB40 TEMPO 2409/2412 8000 RA SCT015 BKN080 TX31/2419Z TN26/2411Z
Issued Valid From Valid To
Oct-23 @ 23:00 UTC
(6 hours ago)
Oct-24 @ 00:00 UTC
(5 hours ago)
Oct-25 @ 00:00 UTC
(in 19 hours)
Oct-24 @ 00:00 to Oct-25 @ 00:00
TAF SKSP 232300Z 2400/2424 06012KT 9999 FEW017 SCT120
Wind Visibility Clouds
60° at 12 knots 10,000+ meters
  • Few at 1,700' AGL
  • Scattered at 12,000' AGL
Temporary Oct-24 @ 02:00 to Oct-24 @ 06:00
TEMPO 2402/2406 7000 SHRA SCT017CB OVC200
Visibility Clouds Conditions
7,001 meters
  • Scattered at 1,700' AGL
  • Overcast at 20,000' AGL
  • Rain
Temporary  (Probability 40%) Oct-24 @ 09:00 to Oct-24 @ 12:00
PROB40 TEMPO 2409/2412 8000 RA SCT015 BKN080 TX31/2419Z TN26/2411Z
Visibility Clouds Conditions
7,998 meters
  • Scattered at 1,500' AGL
  • Broken at 8,000' AGL
  • Rain
TAF SKSP 232300Z 2400/2424 06012KT 9999 FEW017 SCT120 TEMPO 2402/2406 7000 SHRA SCT017CB OVC200 PROB40 TEMPO 2409/2412 8000 RA SCT015 BKN080 TX31/2419Z TN26/2411Z
Issued Oct-23 @ 23:00 UTC
(6 hours ago)
Valid From Oct-24 @ 00:00 UTC
(5 hours ago)
Valid To Oct-25 @ 00:00 UTC
(in 19 hours)
Oct-24 @ 00:00 - Oct-25 @ 00:00
Wind Visibility
60° at 12 knots 10,000+ meters
Clouds
  • Few at 1,700' AGL
  • Scattered at 12,000' AGL
Temporary Oct-24 @ 02:00 - Oct-24 @ 06:00
Clouds
  • Scattered at 1,700' AGL
  • Overcast at 20,000' AGL
Conditions
  • Rain
Probability 40% Temporary Oct-24 @ 09:00 - Oct-24 @ 12:00
Clouds
  • Scattered at 1,500' AGL
  • Broken at 8,000' AGL
Conditions
  • Rain